Map

Track Data

SID SEASON NUMBER BASIN SUBBASIN NAME ISO_TIME NATURE LAT LON WMO_WIND WMO_PRES WMO_AGENCY TRACK_TYPE DIST2LAND LANDFALL IFLAG USA_AGENCY USA_ATCF_ID USA_LAT USA_LON USA_RECORD USA_STATUS USA_WIND USA_PRES USA_SSHS USA_R34_NE USA_R34_SE USA_R34_SW USA_R34_NW USA_R50_NE USA_R50_SE USA_R50_SW USA_R50_NW USA_R64_NE USA_R64_SE USA_R64_SW USA_R64_NW USA_POCI USA_ROCI USA_RMW USA_EYE TOKYO_LAT TOKYO_LON TOKYO_GRADE TOKYO_WIND TOKYO_PRES TOKYO_R50_DIR TOKYO_R50_LONG TOKYO_R50_SHORT TOKYO_R30_DIR TOKYO_R30_LONG TOKYO_R30_SHORT TOKYO_LAND CMA_LAT CMA_LON CMA_CAT CMA_WIND CMA_PRES HKO_LAT HKO_LON HKO_CAT HKO_WIND HKO_PRES NEWDELHI_LAT NEWDELHI_LON NEWDELHI_GRADE NEWDELHI_WIND NEWDELHI_PRES NEWDELHI_CI NEWDELHI_DP NEWDELHI_POCI REUNION_LAT REUNION_LON REUNION_TYPE REUNION_WIND REUNION_PRES REUNION_TNUM REUNION_CI REUNION_RMW REUNION_R34_NE REUNION_R34_SE REUNION_R34_SW REUNION_R34_NW REUNION_R50_NE REUNION_R50_SE REUNION_R50_SW REUNION_R50_NW REUNION_R64_NE REUNION_R64_SE REUNION_R64_SW REUNION_R64_NW BOM_LAT BOM_LON BOM_TYPE BOM_WIND BOM_PRES BOM_TNUM BOM_CI BOM_RMW BOM_R34_NE BOM_R34_SE BOM_R34_SW BOM_R34_NW BOM_R50_NE BOM_R50_SE BOM_R50_SW BOM_R50_NW BOM_R64_NE BOM_R64_SE BOM_R64_SW BOM_R64_NW BOM_ROCI BOM_POCI BOM_EYE BOM_POS_METHOD BOM_PRES_METHOD NADI_LAT NADI_LON NADI_CAT NADI_WIND NADI_PRES WELLINGTON_LAT WELLINGTON_LON WELLINGTON_WIND WELLINGTON_PRES DS824_LAT DS824_LON DS824_STAGE DS824_WIND DS824_PRES TD9636_LAT TD9636_LON TD9636_STAGE TD9636_WIND TD9636_PRES TD9635_LAT TD9635_LON TD9635_WIND TD9635_PRES TD9635_ROCI NEUMANN_LAT NEUMANN_LON NEUMANN_CLASS NEUMANN_WIND NEUMANN_PRES MLC_LAT MLC_LON MLC_CLASS MLC_WIND MLC_PRES USA_GUST BOM_GUST BOM_GUST_PER REUNION_GUST REUNION_GUST_PER USA_SEAHGT USA_SEARAD_NE USA_SEARAD_SE USA_SEARAD_SW USA_SEARAD_NW STORM_SPEED STORM_DIR
1951329N11149 1951 89 WP MM NOT_NAMED 1951-11-25 00:00:00 TS 10.8000 149.000 main 1456 1450 __O___________ -1 10.8000 149.000 0 1008 10 276
1951329N11149 1951 89 WP MM NOT_NAMED 1951-11-25 03:00:00 TS 10.8477 148.500 main 1450 1450 __P___________ -1 10.8477 148.500 0 1007 10 276
1951329N11149 1951 89 WP MM NOT_NAMED 1951-11-25 06:00:00 TS 10.9000 148.000 main 1458 1456 __O___________ -1 10.9000 148.000 0 1006 10 276
1951329N11149 1951 89 WP MM NOT_NAMED 1951-11-25 09:00:00 TS 10.9574 147.500 main 1467 1467 __P___________ -1 10.9574 147.500 0 1006 10 276
1951329N11149 1951 89 WP MM NOT_NAMED 1951-11-25 12:00:00 TS 11.0000 147.000 main 1467 1467 __O___________ -1 11.0000 147.000 0 1006 10 273
1951329N11149 1951 89 WP MM NOT_NAMED 1951-11-25 15:00:00 TS 11.0074 146.500 main 1467 1467 __P___________ -1 11.0074 146.500 0 1005 10 270
1951329N11149 1951 89 WP MM NOT_NAMED 1951-11-25 18:00:00 TS 11.0000 146.000 main 1469 1469 __O___________ -1 11.0000 146.000 0 1005 10 270
1951329N11149 1951 89 WP MM NOT_NAMED 1951-11-25 21:00:00 TS 10.9999 145.500 main 1472 1472 __P___________ -1 10.9999 145.500 0 1005 10 270
1951329N11149 1951 89 WP MM NOT_NAMED 1951-11-26 00:00:00 TS 11.0000 145.000 main 1478 1478 __O___________ -1 11.0000 145.000 0 1005 10 270
1951329N11149 1951 89 WP MM NOT_NAMED 1951-11-26 03:00:00 TS 10.9999 144.500 main 1486 1486 __P___________ -1 10.9999 144.500 0 1004 10 270
1951329N11149 1951 89 WP MM NOT_NAMED 1951-11-26 06:00:00 TS 11.0000 144.000 main 1495 1495 __O___________ -1 11.0000 144.000 1 23 1004 10 270
1951329N11149 1951 89 WP MM NOT_NAMED 1951-11-26 09:00:00 TS 10.9999 143.500 main 1507 1507 __P___________ -1 10.9999 143.500 1 23 1004 10 270
1951329N11149 1951 89 WP MM NOT_NAMED 1951-11-26 12:00:00 TS 11.0000 143.000 main 1508 1489 __O___________ -1 11.0000 143.000 1 23 1004 10 270
1951329N11149 1951 89 WP MM NOT_NAMED 1951-11-26 15:00:00 TS 10.9999 142.500 main 1489 1473 __P___________ -1 10.9999 142.500 1 23 1004 10 270
1951329N11149 1951 89 WP MM NOT_NAMED 1951-11-26 18:00:00 TS 11.0000 142.000 main 1473 1458 __O___________ -1 11.0000 142.000 1 23 1004 10 270
1951329N11149 1951 89 WP MM NOT_NAMED 1951-11-26 21:00:00 TS 10.9999 141.500 main 1458 1437 __P___________ -1 10.9999 141.500 1 23 1004 10 270
1951329N11149 1951 89 WP MM NOT_NAMED 1951-11-27 00:00:00 TS 11.0000 141.000 main 1437 1416 __O___________ -1 11.0000 141.000 1 23 1004 10 270
1951329N11149 1951 89 WP MM NOT_NAMED 1951-11-27 03:00:00 TS 10.9999 140.500 main 1416 1397 __P___________ -1 10.9999 140.500 1 23 1004 10 270
1951329N11149 1951 89 WP MM NOT_NAMED 1951-11-27 06:00:00 TS 11.0000 140.000 main 1397 1380 __O___________ -1 11.0000 140.000 1 23 1004 10 270
1951329N11149 1951 89 WP MM NOT_NAMED 1951-11-27 09:00:00 TS 11.0074 139.500 main 1380 1363 __P___________ -1 11.0074 139.500 1 1005 10 270
1951329N11149 1951 89 WP MM NOT_NAMED 1951-11-27 12:00:00 TS 11.0000 139.000 main 1363 1349 __O___________ -1 11.0000 139.000 0 1006 10 267
1951329N11149 1951 89 WP MM NOT_NAMED 1951-11-27 15:00:00 TS 10.9499 138.500 main 1338 1302 __P___________ -1 10.9499 138.500 0 1006 10 264
1951329N11149 1951 89 WP MM NOT_NAMED 1951-11-27 18:00:00 TS 10.9000 138.000 main 1302 1249 __O___________ -1 10.9000 138.000 0 1006 10 267
1951329N11149 1951 89 WP MM NOT_NAMED 1951-11-27 21:00:00 TS 10.8999 137.500 main 1249 1196 __P___________ -1 10.8999 137.500 0 1006 10 270
1951329N11149 1951 89 WP MM NOT_NAMED 1951-11-28 00:00:00 TS 10.9000 137.000 main 1196 1142 __O___________ -1 10.9000 137.000 0 1006 10 267
1951329N11149 1951 89 WP MM NOT_NAMED 1951-11-28 03:00:00 TS 10.8498 136.515 main 1140 1086 __P___________ -1 10.8498 136.515 0 1006 10 264
1951329N11149 1951 89 WP MM NOT_NAMED 1951-11-28 06:00:00 TS 10.8000 136.000 main 1086 1022 __O___________ -1 10.8000 136.000 0 1006 11 267
1951329N11149 1951 89 WP MM NOT_NAMED 1951-11-28 09:00:00 TS 10.7925 135.400 main 1022 958 __P___________ -1 10.7925 135.400 0 1006 12 270
1951329N11149 1951 89 WP MM NOT_NAMED 1951-11-28 12:00:00 TS 10.8000 134.800 main 958 905 __O___________ -1 10.8000 134.800 0 1006 11 270
1951329N11149 1951 89 WP MM NOT_NAMED 1951-11-28 15:00:00 TS 10.7999 134.270 main 905 851 __P___________ -1 10.7999 134.270 0 1006 10 270
1951329N11149 1951 89 WP MM NOT_NAMED 1951-11-28 18:00:00 TS 10.8000 133.800 main 851 809 __O___________ -1 10.8000 133.800 0 1006 9 270
1951329N11149 1951 89 WP MM NOT_NAMED 1951-11-28 21:00:00 TS 10.7999 133.393 main 809 766 __P___________ -1 10.7999 133.393 0 1006 8 270
1951329N11149 1951 89 WP MM NOT_NAMED 1951-11-29 00:00:00 TS 10.8000 133.000 main 766 723 __O___________ -1 10.8000 133.000 0 1006 8 270
1951329N11149 1951 89 WP MM NOT_NAMED 1951-11-29 03:00:00 TS 10.8000 132.558 main 723 670 __P___________ -1 10.8000 132.558 0 1006 9 270
1951329N11149 1951 89 WP MM NOT_NAMED 1951-11-29 06:00:00 TS 10.8000 132.100 main 670 628 __O___________ -1 10.8000 132.100 0 1006 9 270
1951329N11149 1951 89 WP MM NOT_NAMED 1951-11-29 09:00:00 TS 10.8000 131.635 main 618 576 __P___________ -1 10.8000 131.635 0 1006 9 270
1951329N11149 1951 89 WP MM NOT_NAMED 1951-11-29 12:00:00 TS 10.8000 131.200 main 576 545 __O___________ -1 10.8000 131.200 0 1006 8 269
1951329N11149 1951 89 WP MM NOT_NAMED 1951-11-29 15:00:00 TS 10.7924 130.842 main 535 504 __P___________ -1 10.7924 130.842 0 1006 7 270
1951329N11149 1951 89 WP MM NOT_NAMED 1951-11-29 18:00:00 TS 10.8000 130.500 main 504 463 __O___________ -1 10.8000 130.500 0 1006 7 274
1951329N11149 1951 89 WP MM NOT_NAMED 1951-11-29 21:00:00 TS 10.8426 130.085 main 463 426 __P___________ -1 10.8426 130.085 0 1007 8 277
1951329N11149 1951 89 WP MM NOT_NAMED 1951-11-30 00:00:00 TS 10.9000 129.700 main 426 393 __O___________ -1 10.9000 129.700 0 1008 7 278
1951329N11149 1951 89 WP MM NOT_NAMED 1951-11-30 03:00:00 TS 10.9349 129.420 main 393 371 __P___________ -1 10.9349 129.420 0 1008 5 282
1951329N11149 1951 89 WP MM NOT_NAMED 1951-11-30 06:00:00 TS 11.0000 129.200 main 371 349 __O___________ -1 11.0000 129.200 0 1008 5 294
1951329N11149 1951 89 WP MM NOT_NAMED 1951-11-30 09:00:00 TS 11.1350 128.970 main 349 328 __P___________ -1 11.1350 128.970 0 1008 5 308
1951329N11149 1951 89 WP MM NOT_NAMED 1951-11-30 12:00:00 TS 11.3000 128.800 main 329 319 __O___________ -1 11.3000 128.800 0 1008 4 323
1951329N11149 1951 89 WP MM NOT_NAMED 1951-11-30 15:00:00 TS 11.4425 128.735 main 319 319 __P___________ -1 11.4425 128.735 0 1008 3 343
1951329N11149 1951 89 WP MM NOT_NAMED 1951-11-30 18:00:00 TS 11.6000 128.700 main 323 315 __O___________ -1 11.6000 128.700 0 1008 4 342
1951329N11149 1951 89 WP MM NOT_NAMED 1951-11-30 21:00:00 TS 11.7900 128.618 main 318 311 __P___________ -1 11.7900 128.618 0 1008 4 334
1951329N11149 1951 89 WP MM NOT_NAMED 1951-12-01 00:00:00 TS 12.0000 128.500 main 314 __O___________ -1 12.0000 128.500 0 1008 5 332

Digital Typhoon Data and Search

About IBTrACS Database

This database is a web-friendly format of International Best Track Archive for Climate Stewardship (IBTrACS), a global best track data archive curated by NOAA dating back to 1842.

Updated: 2021-12-01